<?xml version="1.0" encoding="UTF-8" standalone="no" ?>
<gpx xmlns="http://www.topografix.com/GPX/1/1" xmlns:xsi="http://www.w3.org/2001/XMLSchema-instance" xsi:schemaLocation="http://www.topografix.com/GPX/1/1 http://www.topografix.com/GPX/1/1/gpx.xsd" version="1.1" creator="VisuGPX - https://www.visugpx.com">
  <metadata>
    <name>Gerbier de Jonc et Sources de la Loire (JLo)</name>
    <desc><![CDATA[Petit tour du Mont Gerbier de Jonc et des sources de La Loire]]></desc>
  </metadata>
  <trk>
    <name><![CDATA[2015-08-10 11:54]]></name>
    <desc><![CDATA[<h1>OruxMaps</h1><br /><hr align="center" width="480" style="height: 2px; width: 517px"/><h2>Nom: 2015-08-10 11:54</h2><br /><p>Temps de départ: 08/10/2015 11:54</p><p>Temps d'arrivée: 08/10/2015 13:39</p><p>Distance: 4,8km (01:44)</p><p>Temps déplacement: 00:53</p><p>Vitesse moyenne: 2,8km/h</p><p>Vitesse moyenne: 5,4km/h</p><p>Vitess Max.: 10,5km/h</p><p>Altitude minimale: 1353m</p><p>Altitude maximale: 1549m</p><p>Vitesse d'élévation: 430,6m/h</p><p>Vitesse de descente: -232,7m/h</p><p>Gain Altitude: 232m</p><p>Perte Altitude: -241m</p><p>Temps d'élévation: 00:32</p><p>Temps de descente: 01:02</p><hr align="center" width="480" style="height: 2px; width: 517px"/>]]></desc>
    <trkseg>
      <trkpt lat="44.84324" lon="4.21608">
        <ele>1412.57</ele>
        <time>2015-08-10T09:54:52Z</time>
      </trkpt>
      <trkpt lat="44.84327" lon="4.21622">
        <ele>1413.34</ele>
        <time>2015-08-10T09:55:13Z</time>
      </trkpt>
      <trkpt lat="44.84324" lon="4.21634">
        <ele>1413.7</ele>
        <time>2015-08-10T09:55:21Z</time>
      </trkpt>
      <trkpt lat="44.84319" lon="4.21645">
        <ele>1413.51</ele>
        <time>2015-08-10T09:55:31Z</time>
      </trkpt>
      <trkpt lat="44.84314" lon="4.21657">
        <ele>1412.82</ele>
        <time>2015-08-10T09:55:45Z</time>
      </trkpt>
      <trkpt lat="44.84312" lon="4.21669">
        <ele>1412.46</ele>
        <time>2015-08-10T09:56:04Z</time>
      </trkpt>
      <trkpt lat="44.84311" lon="4.21682">
        <ele>1412.21</ele>
        <time>2015-08-10T09:56:12Z</time>
      </trkpt>
      <trkpt lat="44.84308" lon="4.21695">
        <ele>1411.9</ele>
        <time>2015-08-10T09:56:19Z</time>
      </trkpt>
      <trkpt lat="44.84304" lon="4.21708">
        <ele>1412.57</ele>
        <time>2015-08-10T09:56:27Z</time>
      </trkpt>
      <trkpt lat="44.84298" lon="4.21719">
        <ele>1412.88</ele>
        <time>2015-08-10T09:56:37Z</time>
      </trkpt>
      <trkpt lat="44.8429" lon="4.21728">
        <ele>1413.31</ele>
        <time>2015-08-10T09:56:45Z</time>
      </trkpt>
      <trkpt lat="44.84282" lon="4.21736">
        <ele>1413.78</ele>
        <time>2015-08-10T09:56:53Z</time>
      </trkpt>
      <trkpt lat="44.84276" lon="4.21747">
        <ele>1414.24</ele>
        <time>2015-08-10T09:57:01Z</time>
      </trkpt>
      <trkpt lat="44.84275" lon="4.2176">
        <ele>1415.9</ele>
        <time>2015-08-10T09:57:12Z</time>
      </trkpt>
      <trkpt lat="44.84269" lon="4.21772">
        <ele>1417.2</ele>
        <time>2015-08-10T09:57:22Z</time>
      </trkpt>
      <trkpt lat="44.84265" lon="4.21784">
        <ele>1417.51</ele>
        <time>2015-08-10T09:57:31Z</time>
      </trkpt>
      <trkpt lat="44.84258" lon="4.21793">
        <ele>1417.58</ele>
        <time>2015-08-10T09:57:43Z</time>
      </trkpt>
      <trkpt lat="44.84257" lon="4.21806">
        <ele>1417.8</ele>
        <time>2015-08-10T09:57:51Z</time>
      </trkpt>
      <trkpt lat="44.84262" lon="4.21818">
        <ele>1418.06</ele>
        <time>2015-08-10T09:57:56Z</time>
      </trkpt>
      <trkpt lat="44.84258" lon="4.2183">
        <ele>1418.52</ele>
        <time>2015-08-10T09:58:06Z</time>
      </trkpt>
      <trkpt lat="44.84257" lon="4.21844">
        <ele>1419.09</ele>
        <time>2015-08-10T09:58:21Z</time>
      </trkpt>
      <trkpt lat="44.84257" lon="4.21858">
        <ele>1420.21</ele>
        <time>2015-08-10T09:58:28Z</time>
      </trkpt>
      <trkpt lat="44.8425" lon="4.21867">
        <ele>1422.55</ele>
        <time>2015-08-10T09:58:39Z</time>
      </trkpt>
      <trkpt lat="44.84245" lon="4.21878">
        <ele>1423.42</ele>
        <time>2015-08-10T09:58:53Z</time>
      </trkpt>
      <trkpt lat="44.84239" lon="4.2189">
        <ele>1423.98</ele>
        <time>2015-08-10T09:59:00Z</time>
      </trkpt>
      <trkpt lat="44.84235" lon="4.21901">
        <ele>1424.96</ele>
        <time>2015-08-10T09:59:17Z</time>
      </trkpt>
      <trkpt lat="44.84242" lon="4.21908">
        <ele>1426.09</ele>
        <time>2015-08-10T09:59:39Z</time>
      </trkpt>
      <trkpt lat="44.84248" lon="4.21918">
        <ele>1426.54</ele>
        <time>2015-08-10T09:59:47Z</time>
      </trkpt>
      <trkpt lat="44.84246" lon="4.21931">
        <ele>1427.42</ele>
        <time>2015-08-10T09:59:55Z</time>
      </trkpt>
      <trkpt lat="44.84254" lon="4.21937">
        <ele>1430.23</ele>
        <time>2015-08-10T10:00:12Z</time>
      </trkpt>
      <trkpt lat="44.84261" lon="4.21948">
        <ele>1431.95</ele>
        <time>2015-08-10T10:00:22Z</time>
      </trkpt>
      <trkpt lat="44.84262" lon="4.21961">
        <ele>1434.43</ele>
        <time>2015-08-10T10:00:39Z</time>
      </trkpt>
      <trkpt lat="44.8427" lon="4.21968">
        <ele>1438.43</ele>
        <time>2015-08-10T10:01:02Z</time>
      </trkpt>
      <trkpt lat="44.84276" lon="4.21978">
        <ele>1441.63</ele>
        <time>2015-08-10T10:01:32Z</time>
      </trkpt>
      <trkpt lat="44.84282" lon="4.2199">
        <ele>1442.8</ele>
        <time>2015-08-10T10:01:36Z</time>
      </trkpt>
      <trkpt lat="44.84289" lon="4.22003">
        <ele>1445.34</ele>
        <time>2015-08-10T10:01:39Z</time>
      </trkpt>
      <trkpt lat="44.843" lon="4.21998">
        <ele>1447.24</ele>
        <time>2015-08-10T10:01:53Z</time>
      </trkpt>
      <trkpt lat="44.84294" lon="4.21989">
        <ele>1449.65</ele>
        <time>2015-08-10T10:02:30Z</time>
      </trkpt>
      <trkpt lat="44.84296" lon="4.21976">
        <ele>1451.26</ele>
        <time>2015-08-10T10:02:46Z</time>
      </trkpt>
      <trkpt lat="44.84305" lon="4.21973">
        <ele>1454.33</ele>
        <time>2015-08-10T10:03:06Z</time>
      </trkpt>
      <trkpt lat="44.84308" lon="4.21986">
        <ele>1459.36</ele>
        <time>2015-08-10T10:03:33Z</time>
      </trkpt>
      <trkpt lat="44.8431" lon="4.21999">
        <ele>1469.05</ele>
        <time>2015-08-10T10:04:16Z</time>
      </trkpt>
      <trkpt lat="44.84319" lon="4.22">
        <ele>1472.89</ele>
        <time>2015-08-10T10:04:30Z</time>
      </trkpt>
      <trkpt lat="44.84316" lon="4.22012">
        <ele>1477.46</ele>
        <time>2015-08-10T10:05:02Z</time>
      </trkpt>
      <trkpt lat="44.84324" lon="4.22008">
        <ele>1481.09</ele>
        <time>2015-08-10T10:05:24Z</time>
      </trkpt>
      <trkpt lat="44.84332" lon="4.22002">
        <ele>1486.82</ele>
        <time>2015-08-10T10:06:02Z</time>
      </trkpt>
      <trkpt lat="44.8434" lon="4.22009">
        <ele>1493.9</ele>
        <time>2015-08-10T10:06:30Z</time>
      </trkpt>
      <trkpt lat="44.84343" lon="4.22021">
        <ele>1502.41</ele>
        <time>2015-08-10T10:07:07Z</time>
      </trkpt>
      <trkpt lat="44.84338" lon="4.22032">
        <ele>1504.96</ele>
        <time>2015-08-10T10:07:24Z</time>
      </trkpt>
      <trkpt lat="44.84348" lon="4.22036">
        <ele>1508.15</ele>
        <time>2015-08-10T10:08:05Z</time>
      </trkpt>
      <trkpt lat="44.84356" lon="4.22041">
        <ele>1514.12</ele>
        <time>2015-08-10T10:09:18Z</time>
      </trkpt>
      <trkpt lat="44.84366" lon="4.22045">
        <ele>1527.77</ele>
        <time>2015-08-10T10:10:46Z</time>
      </trkpt>
      <trkpt lat="44.84375" lon="4.22047">
        <ele>1531.36</ele>
        <time>2015-08-10T10:11:05Z</time>
      </trkpt>
      <trkpt lat="44.84384" lon="4.22047">
        <ele>1534.58</ele>
        <time>2015-08-10T10:11:21Z</time>
      </trkpt>
      <trkpt lat="44.84388" lon="4.22035">
        <ele>1537.07</ele>
        <time>2015-08-10T10:11:41Z</time>
      </trkpt>
      <trkpt lat="44.84395" lon="4.22028">
        <ele>1538.99</ele>
        <time>2015-08-10T10:11:55Z</time>
      </trkpt>
      <trkpt lat="44.84399" lon="4.22016">
        <ele>1541.33</ele>
        <time>2015-08-10T10:12:23Z</time>
      </trkpt>
      <trkpt lat="44.8439" lon="4.22015">
        <ele>1544.65</ele>
        <time>2015-08-10T10:12:59Z</time>
      </trkpt>
      <trkpt lat="44.84399" lon="4.22017">
        <ele>1548.66</ele>
        <time>2015-08-10T10:15:13Z</time>
      </trkpt>
      <trkpt lat="44.8439" lon="4.22014">
        <ele>1548.97</ele>
        <time>2015-08-10T10:15:43Z</time>
      </trkpt>
      <trkpt lat="44.84386" lon="4.22026">
        <ele>1549.86</ele>
        <time>2015-08-10T10:16:59Z</time>
      </trkpt>
      <trkpt lat="44.84396" lon="4.22022">
        <ele>1548.05</ele>
        <time>2015-08-10T10:17:41Z</time>
      </trkpt>
      <trkpt lat="44.84398" lon="4.22006">
        <ele>1547.99</ele>
        <time>2015-08-10T10:17:53Z</time>
      </trkpt>
      <trkpt lat="44.84402" lon="4.21994">
        <ele>1546.82</ele>
        <time>2015-08-10T10:18:14Z</time>
      </trkpt>
      <trkpt lat="44.84396" lon="4.21983">
        <ele>1546.56</ele>
        <time>2015-08-10T10:18:35Z</time>
      </trkpt>
      <trkpt lat="44.84391" lon="4.21972">
        <ele>1545.83</ele>
        <time>2015-08-10T10:18:50Z</time>
      </trkpt>
      <trkpt lat="44.84383" lon="4.21966">
        <ele>1536.05</ele>
        <time>2015-08-10T10:19:56Z</time>
      </trkpt>
      <trkpt lat="44.84376" lon="4.21957">
        <ele>1530.36</ele>
        <time>2015-08-10T10:20:32Z</time>
      </trkpt>
      <trkpt lat="44.84371" lon="4.21945">
        <ele>1528.77</ele>
        <time>2015-08-10T10:21:07Z</time>
      </trkpt>
      <trkpt lat="44.84362" lon="4.21941">
        <ele>1520</ele>
        <time>2015-08-10T10:22:04Z</time>
      </trkpt>
      <trkpt lat="44.8436" lon="4.21925">
        <ele>1510.93</ele>
        <time>2015-08-10T10:22:52Z</time>
      </trkpt>
      <trkpt lat="44.84356" lon="4.21912">
        <ele>1501.48</ele>
        <time>2015-08-10T10:24:13Z</time>
      </trkpt>
      <trkpt lat="44.84355" lon="4.21899">
        <ele>1493.82</ele>
        <time>2015-08-10T10:25:34Z</time>
      </trkpt>
      <trkpt lat="44.84348" lon="4.2189">
        <ele>1491.89</ele>
        <time>2015-08-10T10:26:13Z</time>
      </trkpt>
      <trkpt lat="44.84353" lon="4.21902">
        <ele>1483.5</ele>
        <time>2015-08-10T10:27:38Z</time>
      </trkpt>
      <trkpt lat="44.84354" lon="4.21915">
        <ele>1481.85</ele>
        <time>2015-08-10T10:28:01Z</time>
      </trkpt>
      <trkpt lat="44.8435" lon="4.21901">
        <ele>1476.48</ele>
        <time>2015-08-10T10:28:25Z</time>
      </trkpt>
      <trkpt lat="44.84315" lon="4.21894">
        <ele>1470.17</ele>
        <time>2015-08-10T10:29:18Z</time>
      </trkpt>
      <trkpt lat="44.84327" lon="4.21884">
        <ele>1475.06</ele>
        <time>2015-08-10T10:29:37Z</time>
      </trkpt>
      <trkpt lat="44.84336" lon="4.21882">
        <ele>1479.65</ele>
        <time>2015-08-10T10:29:55Z</time>
      </trkpt>
      <trkpt lat="44.8433" lon="4.21893">
        <ele>1475.34</ele>
        <time>2015-08-10T10:31:49Z</time>
      </trkpt>
      <trkpt lat="44.84321" lon="4.21887">
        <ele>1476.34</ele>
        <time>2015-08-10T10:32:01Z</time>
      </trkpt>
      <trkpt lat="44.84311" lon="4.21885">
        <ele>1475.92</ele>
        <time>2015-08-10T10:32:31Z</time>
      </trkpt>
      <trkpt lat="44.84313" lon="4.2187">
        <ele>1464.22</ele>
        <time>2015-08-10T10:33:31Z</time>
      </trkpt>
      <trkpt lat="44.84309" lon="4.21858">
        <ele>1460.84</ele>
        <time>2015-08-10T10:33:46Z</time>
      </trkpt>
      <trkpt lat="44.84313" lon="4.21845">
        <ele>1452.88</ele>
        <time>2015-08-10T10:34:07Z</time>
      </trkpt>
      <trkpt lat="44.84306" lon="4.21833">
        <ele>1447.39</ele>
        <time>2015-08-10T10:34:28Z</time>
      </trkpt>
      <trkpt lat="44.843" lon="4.21823">
        <ele>1442.68</ele>
        <time>2015-08-10T10:34:43Z</time>
      </trkpt>
      <trkpt lat="44.84295" lon="4.2181">
        <ele>1436.23</ele>
        <time>2015-08-10T10:35:04Z</time>
      </trkpt>
      <trkpt lat="44.84303" lon="4.21803">
        <ele>1433.58</ele>
        <time>2015-08-10T10:35:13Z</time>
      </trkpt>
      <trkpt lat="44.84313" lon="4.21796">
        <ele>1431.23</ele>
        <time>2015-08-10T10:35:22Z</time>
      </trkpt>
      <trkpt lat="44.84319" lon="4.21784">
        <ele>1429.76</ele>
        <time>2015-08-10T10:35:31Z</time>
      </trkpt>
      <trkpt lat="44.84324" lon="4.21772">
        <ele>1429.27</ele>
        <time>2015-08-10T10:35:40Z</time>
      </trkpt>
      <trkpt lat="44.84327" lon="4.21757">
        <ele>1427.88</ele>
        <time>2015-08-10T10:35:52Z</time>
      </trkpt>
      <trkpt lat="44.84333" lon="4.21743">
        <ele>1425.78</ele>
        <time>2015-08-10T10:36:04Z</time>
      </trkpt>
      <trkpt lat="44.84327" lon="4.21732">
        <ele>1425.3</ele>
        <time>2015-08-10T10:36:12Z</time>
      </trkpt>
      <trkpt lat="44.84325" lon="4.2169">
        <ele>1428.23</ele>
        <time>2015-08-10T10:36:30Z</time>
      </trkpt>
      <trkpt lat="44.84328" lon="4.21676">
        <ele>1428.24</ele>
        <time>2015-08-10T10:36:46Z</time>
      </trkpt>
      <trkpt lat="44.84329" lon="4.21662">
        <ele>1426.48</ele>
        <time>2015-08-10T10:36:55Z</time>
      </trkpt>
      <trkpt lat="44.84331" lon="4.2165">
        <ele>1425.04</ele>
        <time>2015-08-10T10:37:04Z</time>
      </trkpt>
      <trkpt lat="44.84328" lon="4.21633">
        <ele>1422.9</ele>
        <time>2015-08-10T10:37:19Z</time>
      </trkpt>
      <trkpt lat="44.8432" lon="4.21624">
        <ele>1421.47</ele>
        <time>2015-08-10T10:37:28Z</time>
      </trkpt>
      <trkpt lat="44.84311" lon="4.21617">
        <ele>1419.11</ele>
        <time>2015-08-10T10:37:49Z</time>
      </trkpt>
      <trkpt lat="44.84306" lon="4.21606">
        <ele>1416.9</ele>
        <time>2015-08-10T10:38:17Z</time>
      </trkpt>
      <trkpt lat="44.84295" lon="4.21598">
        <ele>1415.93</ele>
        <time>2015-08-10T10:38:32Z</time>
      </trkpt>
      <trkpt lat="44.84287" lon="4.2159">
        <ele>1414.65</ele>
        <time>2015-08-10T10:38:53Z</time>
      </trkpt>
      <trkpt lat="44.84283" lon="4.21577">
        <ele>1412.87</ele>
        <time>2015-08-10T10:39:41Z</time>
      </trkpt>
      <trkpt lat="44.84273" lon="4.21575">
        <ele>1411.06</ele>
        <time>2015-08-10T10:39:59Z</time>
      </trkpt>
      <trkpt lat="44.8427" lon="4.21562">
        <ele>1410.17</ele>
        <time>2015-08-10T10:40:20Z</time>
      </trkpt>
      <trkpt lat="44.84278" lon="4.21554">
        <ele>1409.9</ele>
        <time>2015-08-10T10:40:29Z</time>
      </trkpt>
      <trkpt lat="44.84283" lon="4.21542">
        <ele>1409.75</ele>
        <time>2015-08-10T10:40:35Z</time>
      </trkpt>
      <trkpt lat="44.84277" lon="4.21562">
        <ele>1409.76</ele>
        <time>2015-08-10T10:40:55Z</time>
      </trkpt>
      <trkpt lat="44.84263" lon="4.21563">
        <ele>1409.8</ele>
        <time>2015-08-10T10:41:02Z</time>
      </trkpt>
      <trkpt lat="44.84254" lon="4.21559">
        <ele>1409.89</ele>
        <time>2015-08-10T10:41:12Z</time>
      </trkpt>
      <trkpt lat="44.84262" lon="4.21555">
        <ele>1410.39</ele>
        <time>2015-08-10T10:41:35Z</time>
      </trkpt>
      <trkpt lat="44.84255" lon="4.21547">
        <ele>1410.32</ele>
        <time>2015-08-10T10:41:53Z</time>
      </trkpt>
      <trkpt lat="44.84268" lon="4.21558">
        <ele>1411.08</ele>
        <time>2015-08-10T10:42:08Z</time>
      </trkpt>
      <trkpt lat="44.84276" lon="4.21573">
        <ele>1411.01</ele>
        <time>2015-08-10T10:42:11Z</time>
      </trkpt>
      <trkpt lat="44.84285" lon="4.21582">
        <ele>1411.09</ele>
        <time>2015-08-10T10:42:17Z</time>
      </trkpt>
      <trkpt lat="44.84276" lon="4.21576">
        <ele>1410.45</ele>
        <time>2015-08-10T10:42:47Z</time>
      </trkpt>
      <trkpt lat="44.84287" lon="4.21583">
        <ele>1410.41</ele>
        <time>2015-08-10T10:43:20Z</time>
      </trkpt>
      <trkpt lat="44.84292" lon="4.21595">
        <ele>1409.27</ele>
        <time>2015-08-10T10:43:39Z</time>
      </trkpt>
      <trkpt lat="44.84302" lon="4.21634">
        <ele>1411.7</ele>
        <time>2015-08-10T10:44:54Z</time>
      </trkpt>
      <trkpt lat="44.8429" lon="4.21638">
        <ele>1409.81</ele>
        <time>2015-08-10T10:45:03Z</time>
      </trkpt>
      <trkpt lat="44.84281" lon="4.21645">
        <ele>1409.77</ele>
        <time>2015-08-10T10:45:11Z</time>
      </trkpt>
      <trkpt lat="44.84272" lon="4.21654">
        <ele>1411.44</ele>
        <time>2015-08-10T10:45:20Z</time>
      </trkpt>
      <trkpt lat="44.84266" lon="4.21665">
        <ele>1413.63</ele>
        <time>2015-08-10T10:45:29Z</time>
      </trkpt>
      <trkpt lat="44.84257" lon="4.21677">
        <ele>1414.35</ele>
        <time>2015-08-10T10:45:38Z</time>
      </trkpt>
      <trkpt lat="44.84248" lon="4.21686">
        <ele>1414.68</ele>
        <time>2015-08-10T10:45:50Z</time>
      </trkpt>
      <trkpt lat="44.84239" lon="4.217">
        <ele>1414.82</ele>
        <time>2015-08-10T10:46:00Z</time>
      </trkpt>
      <trkpt lat="44.84229" lon="4.21707">
        <ele>1414.89</ele>
        <time>2015-08-10T10:46:06Z</time>
      </trkpt>
      <trkpt lat="44.84219" lon="4.21713">
        <ele>1415.37</ele>
        <time>2015-08-10T10:46:12Z</time>
      </trkpt>
      <trkpt lat="44.84211" lon="4.21719">
        <ele>1416.1</ele>
        <time>2015-08-10T10:46:21Z</time>
      </trkpt>
      <trkpt lat="44.84204" lon="4.21727">
        <ele>1416.5</ele>
        <time>2015-08-10T10:46:30Z</time>
      </trkpt>
      <trkpt lat="44.84198" lon="4.21737">
        <ele>1416.67</ele>
        <time>2015-08-10T10:46:38Z</time>
      </trkpt>
      <trkpt lat="44.84192" lon="4.21752">
        <ele>1416.86</ele>
        <time>2015-08-10T10:46:47Z</time>
      </trkpt>
      <trkpt lat="44.84186" lon="4.21767">
        <ele>1417.06</ele>
        <time>2015-08-10T10:46:59Z</time>
      </trkpt>
      <trkpt lat="44.84181" lon="4.21778">
        <ele>1417.01</ele>
        <time>2015-08-10T10:47:08Z</time>
      </trkpt>
      <trkpt lat="44.84175" lon="4.2179">
        <ele>1416.75</ele>
        <time>2015-08-10T10:47:17Z</time>
      </trkpt>
      <trkpt lat="44.84171" lon="4.21802">
        <ele>1416.22</ele>
        <time>2015-08-10T10:47:26Z</time>
      </trkpt>
      <trkpt lat="44.84168" lon="4.21815">
        <ele>1415.3</ele>
        <time>2015-08-10T10:47:35Z</time>
      </trkpt>
      <trkpt lat="44.84165" lon="4.21836">
        <ele>1414.69</ele>
        <time>2015-08-10T10:47:46Z</time>
      </trkpt>
      <trkpt lat="44.84175" lon="4.2187">
        <ele>1413.53</ele>
        <time>2015-08-10T10:48:04Z</time>
      </trkpt>
      <trkpt lat="44.84171" lon="4.21885">
        <ele>1413.07</ele>
        <time>2015-08-10T10:48:07Z</time>
      </trkpt>
      <trkpt lat="44.84168" lon="4.21873">
        <ele>1412.76</ele>
        <time>2015-08-10T10:48:22Z</time>
      </trkpt>
      <trkpt lat="44.84158" lon="4.21867">
        <ele>1412.62</ele>
        <time>2015-08-10T10:48:31Z</time>
      </trkpt>
      <trkpt lat="44.84148" lon="4.21866">
        <ele>1412.47</ele>
        <time>2015-08-10T10:48:55Z</time>
      </trkpt>
      <trkpt lat="44.84157" lon="4.21871">
        <ele>1438.1</ele>
        <time>2015-08-10T10:49:38Z</time>
      </trkpt>
      <trkpt lat="44.84151" lon="4.21861">
        <ele>1410.86</ele>
        <time>2015-08-10T10:50:06Z</time>
      </trkpt>
      <trkpt lat="44.84134" lon="4.21847">
        <ele>1410.47</ele>
        <time>2015-08-10T10:50:32Z</time>
      </trkpt>
      <trkpt lat="44.84145" lon="4.21854">
        <ele>1413.17</ele>
        <time>2015-08-10T10:50:38Z</time>
      </trkpt>
      <trkpt lat="44.84141" lon="4.21866">
        <ele>1415.69</ele>
        <time>2015-08-10T10:51:09Z</time>
      </trkpt>
      <trkpt lat="44.84144" lon="4.21853">
        <ele>1415.26</ele>
        <time>2015-08-10T10:51:17Z</time>
      </trkpt>
      <trkpt lat="44.84139" lon="4.21867">
        <ele>1413.73</ele>
        <time>2015-08-10T10:51:32Z</time>
      </trkpt>
      <trkpt lat="44.84136" lon="4.21882">
        <ele>1411.34</ele>
        <time>2015-08-10T10:51:52Z</time>
      </trkpt>
      <trkpt lat="44.84133" lon="4.21894">
        <ele>1411</ele>
        <time>2015-08-10T10:52:01Z</time>
      </trkpt>
      <trkpt lat="44.84132" lon="4.2191">
        <ele>1410.47</ele>
        <time>2015-08-10T10:52:10Z</time>
      </trkpt>
      <trkpt lat="44.8413" lon="4.21923">
        <ele>1409.87</ele>
        <time>2015-08-10T10:52:19Z</time>
      </trkpt>
      <trkpt lat="44.84126" lon="4.21938">
        <ele>1409.74</ele>
        <time>2015-08-10T10:52:28Z</time>
      </trkpt>
      <trkpt lat="44.84123" lon="4.21951">
        <ele>1409.62</ele>
        <time>2015-08-10T10:52:37Z</time>
      </trkpt>
      <trkpt lat="44.84122" lon="4.21966">
        <ele>1409.29</ele>
        <time>2015-08-10T10:52:46Z</time>
      </trkpt>
      <trkpt lat="44.84119" lon="4.21978">
        <ele>1408.96</ele>
        <time>2015-08-10T10:52:53Z</time>
      </trkpt>
      <trkpt lat="44.8411" lon="4.22001">
        <ele>1409.94</ele>
        <time>2015-08-10T10:53:08Z</time>
      </trkpt>
      <trkpt lat="44.84101" lon="4.22005">
        <ele>1410.14</ele>
        <time>2015-08-10T10:53:17Z</time>
      </trkpt>
      <trkpt lat="44.84091" lon="4.22012">
        <ele>1409.47</ele>
        <time>2015-08-10T10:53:26Z</time>
      </trkpt>
      <trkpt lat="44.84088" lon="4.22025">
        <ele>1408.79</ele>
        <time>2015-08-10T10:53:35Z</time>
      </trkpt>
      <trkpt lat="44.84086" lon="4.2204">
        <ele>1408.13</ele>
        <time>2015-08-10T10:53:44Z</time>
      </trkpt>
      <trkpt lat="44.84087" lon="4.22057">
        <ele>1407.34</ele>
        <time>2015-08-10T10:53:57Z</time>
      </trkpt>
      <trkpt lat="44.84088" lon="4.22073">
        <ele>1406.93</ele>
        <time>2015-08-10T10:54:09Z</time>
      </trkpt>
      <trkpt lat="44.84089" lon="4.22089">
        <ele>1406.61</ele>
        <time>2015-08-10T10:54:18Z</time>
      </trkpt>
      <trkpt lat="44.84088" lon="4.22102">
        <ele>1406.68</ele>
        <time>2015-08-10T10:54:27Z</time>
      </trkpt>
      <trkpt lat="44.84086" lon="4.22117">
        <ele>1407.2</ele>
        <time>2015-08-10T10:54:36Z</time>
      </trkpt>
      <trkpt lat="44.84086" lon="4.22131">
        <ele>1407.78</ele>
        <time>2015-08-10T10:54:45Z</time>
      </trkpt>
      <trkpt lat="44.84087" lon="4.22144">
        <ele>1408.1</ele>
        <time>2015-08-10T10:54:54Z</time>
      </trkpt>
      <trkpt lat="44.84087" lon="4.22159">
        <ele>1408.43</ele>
        <time>2015-08-10T10:55:03Z</time>
      </trkpt>
      <trkpt lat="44.84088" lon="4.22176">
        <ele>1408.83</ele>
        <time>2015-08-10T10:55:12Z</time>
      </trkpt>
      <trkpt lat="44.84088" lon="4.22192">
        <ele>1409.34</ele>
        <time>2015-08-10T10:55:21Z</time>
      </trkpt>
      <trkpt lat="44.84089" lon="4.22208">
        <ele>1409.94</ele>
        <time>2015-08-10T10:55:30Z</time>
      </trkpt>
      <trkpt lat="44.84092" lon="4.22223">
        <ele>1410.42</ele>
        <time>2015-08-10T10:55:39Z</time>
      </trkpt>
      <trkpt lat="44.84101" lon="4.22234">
        <ele>1411.07</ele>
        <time>2015-08-10T10:55:51Z</time>
      </trkpt>
      <trkpt lat="44.84111" lon="4.22244">
        <ele>1411.9</ele>
        <time>2015-08-10T10:56:00Z</time>
      </trkpt>
      <trkpt lat="44.84113" lon="4.22261">
        <ele>1412.76</ele>
        <time>2015-08-10T10:56:15Z</time>
      </trkpt>
      <trkpt lat="44.84111" lon="4.22278">
        <ele>1413.19</ele>
        <time>2015-08-10T10:56:24Z</time>
      </trkpt>
      <trkpt lat="44.84105" lon="4.22295">
        <ele>1413.69</ele>
        <time>2015-08-10T10:56:35Z</time>
      </trkpt>
      <trkpt lat="44.84102" lon="4.2231">
        <ele>1414.39</ele>
        <time>2015-08-10T10:56:44Z</time>
      </trkpt>
      <trkpt lat="44.84097" lon="4.2232">
        <ele>1414.51</ele>
        <time>2015-08-10T10:56:50Z</time>
      </trkpt>
      <trkpt lat="44.84097" lon="4.22337">
        <ele>1414.61</ele>
        <time>2015-08-10T10:56:59Z</time>
      </trkpt>
      <trkpt lat="44.84098" lon="4.2235">
        <ele>1414.95</ele>
        <time>2015-08-10T10:57:05Z</time>
      </trkpt>
      <trkpt lat="44.84099" lon="4.22364">
        <ele>1415.4</ele>
        <time>2015-08-10T10:57:14Z</time>
      </trkpt>
      <trkpt lat="44.84099" lon="4.2238">
        <ele>1415.31</ele>
        <time>2015-08-10T10:57:23Z</time>
      </trkpt>
      <trkpt lat="44.84095" lon="4.22395">
        <ele>1415.42</ele>
        <time>2015-08-10T10:57:32Z</time>
      </trkpt>
      <trkpt lat="44.83887" lon="4.22669">
        <ele>1406.56</ele>
        <time>2015-08-10T11:01:36Z</time>
      </trkpt>
      <trkpt lat="44.83875" lon="4.2268">
        <ele>1415.05</ele>
        <time>2015-08-10T11:01:44Z</time>
      </trkpt>
      <trkpt lat="44.83863" lon="4.22681">
        <ele>1413.84</ele>
        <time>2015-08-10T11:01:57Z</time>
      </trkpt>
      <trkpt lat="44.83853" lon="4.22681">
        <ele>1412.7</ele>
        <time>2015-08-10T11:02:22Z</time>
      </trkpt>
      <trkpt lat="44.83843" lon="4.22683">
        <ele>1412.91</ele>
        <time>2015-08-10T11:02:31Z</time>
      </trkpt>
      <trkpt lat="44.83833" lon="4.22683">
        <ele>1412.86</ele>
        <time>2015-08-10T11:02:39Z</time>
      </trkpt>
      <trkpt lat="44.83823" lon="4.22682">
        <ele>1412.69</ele>
        <time>2015-08-10T11:02:48Z</time>
      </trkpt>
      <trkpt lat="44.83813" lon="4.22678">
        <ele>1412.55</ele>
        <time>2015-08-10T11:02:57Z</time>
      </trkpt>
      <trkpt lat="44.83803" lon="4.22667">
        <ele>1412.2</ele>
        <time>2015-08-10T11:03:06Z</time>
      </trkpt>
      <trkpt lat="44.83795" lon="4.22659">
        <ele>1411.71</ele>
        <time>2015-08-10T11:03:15Z</time>
      </trkpt>
      <trkpt lat="44.83786" lon="4.22651">
        <ele>1410.19</ele>
        <time>2015-08-10T11:03:49Z</time>
      </trkpt>
      <trkpt lat="44.83798" lon="4.2265">
        <ele>1409.7</ele>
        <time>2015-08-10T11:04:01Z</time>
      </trkpt>
      <trkpt lat="44.83831" lon="4.22646">
        <ele>1411.14</ele>
        <time>2015-08-10T11:04:31Z</time>
      </trkpt>
      <trkpt lat="44.83828" lon="4.22629">
        <ele>1413.91</ele>
        <time>2015-08-10T11:04:37Z</time>
      </trkpt>
      <trkpt lat="44.83818" lon="4.22627">
        <ele>1413.59</ele>
        <time>2015-08-10T11:04:46Z</time>
      </trkpt>
      <trkpt lat="44.83818" lon="4.22613">
        <ele>1411.52</ele>
        <time>2015-08-10T11:05:31Z</time>
      </trkpt>
      <trkpt lat="44.83826" lon="4.22605">
        <ele>1409.96</ele>
        <time>2015-08-10T11:05:43Z</time>
      </trkpt>
      <trkpt lat="44.83831" lon="4.22591">
        <ele>1407.41</ele>
        <time>2015-08-10T11:06:01Z</time>
      </trkpt>
      <trkpt lat="44.83838" lon="4.22583">
        <ele>1406.55</ele>
        <time>2015-08-10T11:06:10Z</time>
      </trkpt>
      <trkpt lat="44.83857" lon="4.2254">
        <ele>1404.53</ele>
        <time>2015-08-10T11:06:31Z</time>
      </trkpt>
      <trkpt lat="44.8386" lon="4.22526">
        <ele>1401.08</ele>
        <time>2015-08-10T11:07:02Z</time>
      </trkpt>
      <trkpt lat="44.83866" lon="4.22515">
        <ele>1399.12</ele>
        <time>2015-08-10T11:07:11Z</time>
      </trkpt>
      <trkpt lat="44.83869" lon="4.22503">
        <ele>1397.77</ele>
        <time>2015-08-10T11:07:20Z</time>
      </trkpt>
      <trkpt lat="44.83864" lon="4.22488">
        <ele>1396.15</ele>
        <time>2015-08-10T11:07:42Z</time>
      </trkpt>
      <trkpt lat="44.83869" lon="4.22473">
        <ele>1394.78</ele>
        <time>2015-08-10T11:07:51Z</time>
      </trkpt>
      <trkpt lat="44.83877" lon="4.22465">
        <ele>1393.78</ele>
        <time>2015-08-10T11:08:00Z</time>
      </trkpt>
      <trkpt lat="44.83883" lon="4.2245">
        <ele>1392.75</ele>
        <time>2015-08-10T11:08:12Z</time>
      </trkpt>
      <trkpt lat="44.83879" lon="4.22436">
        <ele>1391.56</ele>
        <time>2015-08-10T11:08:27Z</time>
      </trkpt>
      <trkpt lat="44.83877" lon="4.22421">
        <ele>1390.71</ele>
        <time>2015-08-10T11:08:39Z</time>
      </trkpt>
      <trkpt lat="44.8388" lon="4.22409">
        <ele>1390.92</ele>
        <time>2015-08-10T11:09:16Z</time>
      </trkpt>
      <trkpt lat="44.83881" lon="4.22394">
        <ele>1391.18</ele>
        <time>2015-08-10T11:09:26Z</time>
      </trkpt>
      <trkpt lat="44.83891" lon="4.22386">
        <ele>1390.96</ele>
        <time>2015-08-10T11:09:35Z</time>
      </trkpt>
      <trkpt lat="44.839" lon="4.2238">
        <ele>1390.89</ele>
        <time>2015-08-10T11:09:44Z</time>
      </trkpt>
      <trkpt lat="44.83897" lon="4.22365">
        <ele>1390.6</ele>
        <time>2015-08-10T11:09:50Z</time>
      </trkpt>
      <trkpt lat="44.83895" lon="4.22351">
        <ele>1390.09</ele>
        <time>2015-08-10T11:09:59Z</time>
      </trkpt>
      <trkpt lat="44.83886" lon="4.22341">
        <ele>1390.6</ele>
        <time>2015-08-10T11:10:09Z</time>
      </trkpt>
      <trkpt lat="44.83883" lon="4.22327">
        <ele>1390.37</ele>
        <time>2015-08-10T11:10:18Z</time>
      </trkpt>
      <trkpt lat="44.83878" lon="4.2231">
        <ele>1387.93</ele>
        <time>2015-08-10T11:10:33Z</time>
      </trkpt>
      <trkpt lat="44.83869" lon="4.223">
        <ele>1386.75</ele>
        <time>2015-08-10T11:10:57Z</time>
      </trkpt>
      <trkpt lat="44.83864" lon="4.22288">
        <ele>1386.56</ele>
        <time>2015-08-10T11:11:06Z</time>
      </trkpt>
      <trkpt lat="44.83859" lon="4.22272">
        <ele>1386.46</ele>
        <time>2015-08-10T11:11:21Z</time>
      </trkpt>
      <trkpt lat="44.83852" lon="4.22262">
        <ele>1386.7</ele>
        <time>2015-08-10T11:11:27Z</time>
      </trkpt>
      <trkpt lat="44.8385" lon="4.22249">
        <ele>1386.69</ele>
        <time>2015-08-10T11:11:33Z</time>
      </trkpt>
      <trkpt lat="44.83848" lon="4.22233">
        <ele>1386.55</ele>
        <time>2015-08-10T11:11:39Z</time>
      </trkpt>
      <trkpt lat="44.83847" lon="4.2222">
        <ele>1386.07</ele>
        <time>2015-08-10T11:11:48Z</time>
      </trkpt>
      <trkpt lat="44.83841" lon="4.22208">
        <ele>1385.29</ele>
        <time>2015-08-10T11:12:00Z</time>
      </trkpt>
      <trkpt lat="44.83832" lon="4.22199">
        <ele>1384.39</ele>
        <time>2015-08-10T11:12:12Z</time>
      </trkpt>
      <trkpt lat="44.83823" lon="4.22199">
        <ele>1383.85</ele>
        <time>2015-08-10T11:12:21Z</time>
      </trkpt>
      <trkpt lat="44.83814" lon="4.22203">
        <ele>1382.88</ele>
        <time>2015-08-10T11:12:30Z</time>
      </trkpt>
      <trkpt lat="44.83803" lon="4.22196">
        <ele>1381.92</ele>
        <time>2015-08-10T11:12:39Z</time>
      </trkpt>
      <trkpt lat="44.83794" lon="4.22189">
        <ele>1381.17</ele>
        <time>2015-08-10T11:12:48Z</time>
      </trkpt>
      <trkpt lat="44.83784" lon="4.22183">
        <ele>1380.87</ele>
        <time>2015-08-10T11:12:57Z</time>
      </trkpt>
      <trkpt lat="44.83785" lon="4.22166">
        <ele>1380.18</ele>
        <time>2015-08-10T11:13:09Z</time>
      </trkpt>
      <trkpt lat="44.83789" lon="4.22154">
        <ele>1378.6</ele>
        <time>2015-08-10T11:13:54Z</time>
      </trkpt>
      <trkpt lat="44.83783" lon="4.22141">
        <ele>1379.54</ele>
        <time>2015-08-10T11:14:09Z</time>
      </trkpt>
      <trkpt lat="44.83775" lon="4.22131">
        <ele>1378.34</ele>
        <time>2015-08-10T11:14:18Z</time>
      </trkpt>
      <trkpt lat="44.83774" lon="4.22118">
        <ele>1376.73</ele>
        <time>2015-08-10T11:14:32Z</time>
      </trkpt>
      <trkpt lat="44.83772" lon="4.22105">
        <ele>1376.96</ele>
        <time>2015-08-10T11:14:44Z</time>
      </trkpt>
      <trkpt lat="44.83776" lon="4.22091">
        <ele>1376.72</ele>
        <time>2015-08-10T11:14:56Z</time>
      </trkpt>
      <trkpt lat="44.83777" lon="4.22077">
        <ele>1375.43</ele>
        <time>2015-08-10T11:15:11Z</time>
      </trkpt>
      <trkpt lat="44.83767" lon="4.22069">
        <ele>1368.92</ele>
        <time>2015-08-10T11:16:25Z</time>
      </trkpt>
      <trkpt lat="44.83763" lon="4.22054">
        <ele>1367.38</ele>
        <time>2015-08-10T11:16:37Z</time>
      </trkpt>
      <trkpt lat="44.83755" lon="4.22041">
        <ele>1367.28</ele>
        <time>2015-08-10T11:16:43Z</time>
      </trkpt>
      <trkpt lat="44.83746" lon="4.22034">
        <ele>1366.29</ele>
        <time>2015-08-10T11:16:52Z</time>
      </trkpt>
      <trkpt lat="44.83743" lon="4.22021">
        <ele>1364.36</ele>
        <time>2015-08-10T11:17:01Z</time>
      </trkpt>
      <trkpt lat="44.83743" lon="4.22007">
        <ele>1365.57</ele>
        <time>2015-08-10T11:17:19Z</time>
      </trkpt>
      <trkpt lat="44.83746" lon="4.21995">
        <ele>1368.64</ele>
        <time>2015-08-10T11:17:40Z</time>
      </trkpt>
      <trkpt lat="44.83753" lon="4.21984">
        <ele>1370.18</ele>
        <time>2015-08-10T11:17:49Z</time>
      </trkpt>
      <trkpt lat="44.83757" lon="4.2197">
        <ele>1372.03</ele>
        <time>2015-08-10T11:18:03Z</time>
      </trkpt>
      <trkpt lat="44.83753" lon="4.21958">
        <ele>1372.77</ele>
        <time>2015-08-10T11:18:16Z</time>
      </trkpt>
      <trkpt lat="44.8375" lon="4.21941">
        <ele>1373.26</ele>
        <time>2015-08-10T11:18:37Z</time>
      </trkpt>
      <trkpt lat="44.83741" lon="4.21934">
        <ele>1373.63</ele>
        <time>2015-08-10T11:18:49Z</time>
      </trkpt>
      <trkpt lat="44.8373" lon="4.2193">
        <ele>1375.11</ele>
        <time>2015-08-10T11:18:58Z</time>
      </trkpt>
      <trkpt lat="44.83722" lon="4.21911">
        <ele>1376.82</ele>
        <time>2015-08-10T11:19:07Z</time>
      </trkpt>
      <trkpt lat="44.83713" lon="4.21904">
        <ele>1379.94</ele>
        <time>2015-08-10T11:19:22Z</time>
      </trkpt>
      <trkpt lat="44.83706" lon="4.21892">
        <ele>1379.55</ele>
        <time>2015-08-10T11:19:43Z</time>
      </trkpt>
      <trkpt lat="44.83707" lon="4.21878">
        <ele>1378.22</ele>
        <time>2015-08-10T11:20:01Z</time>
      </trkpt>
      <trkpt lat="44.83716" lon="4.21873">
        <ele>1378.29</ele>
        <time>2015-08-10T11:20:22Z</time>
      </trkpt>
      <trkpt lat="44.83725" lon="4.21871">
        <ele>1377.58</ele>
        <time>2015-08-10T11:20:37Z</time>
      </trkpt>
      <trkpt lat="44.83723" lon="4.21855">
        <ele>1376.65</ele>
        <time>2015-08-10T11:20:52Z</time>
      </trkpt>
      <trkpt lat="44.83719" lon="4.21842">
        <ele>1376.3</ele>
        <time>2015-08-10T11:21:01Z</time>
      </trkpt>
      <trkpt lat="44.83722" lon="4.21825">
        <ele>1376.03</ele>
        <time>2015-08-10T11:21:07Z</time>
      </trkpt>
      <trkpt lat="44.83722" lon="4.21812">
        <ele>1375.56</ele>
        <time>2015-08-10T11:21:13Z</time>
      </trkpt>
      <trkpt lat="44.83723" lon="4.21798">
        <ele>1371.32</ele>
        <time>2015-08-10T11:21:33Z</time>
      </trkpt>
      <trkpt lat="44.83729" lon="4.21785">
        <ele>1369.49</ele>
        <time>2015-08-10T11:21:40Z</time>
      </trkpt>
      <trkpt lat="44.83736" lon="4.21775">
        <ele>1367.76</ele>
        <time>2015-08-10T11:21:46Z</time>
      </trkpt>
      <trkpt lat="44.83742" lon="4.21759">
        <ele>1365.49</ele>
        <time>2015-08-10T11:21:55Z</time>
      </trkpt>
      <trkpt lat="44.83749" lon="4.21746">
        <ele>1364.03</ele>
        <time>2015-08-10T11:22:04Z</time>
      </trkpt>
      <trkpt lat="44.83755" lon="4.21734">
        <ele>1361.89</ele>
        <time>2015-08-10T11:22:16Z</time>
      </trkpt>
      <trkpt lat="44.83763" lon="4.21726">
        <ele>1360.56</ele>
        <time>2015-08-10T11:22:26Z</time>
      </trkpt>
      <trkpt lat="44.83775" lon="4.21726">
        <ele>1359.07</ele>
        <time>2015-08-10T11:22:35Z</time>
      </trkpt>
      <trkpt lat="44.83787" lon="4.21728">
        <ele>1357.74</ele>
        <time>2015-08-10T11:22:44Z</time>
      </trkpt>
      <trkpt lat="44.83796" lon="4.21725">
        <ele>1357.41</ele>
        <time>2015-08-10T11:22:50Z</time>
      </trkpt>
      <trkpt lat="44.83805" lon="4.21718">
        <ele>1357.16</ele>
        <time>2015-08-10T11:22:57Z</time>
      </trkpt>
      <trkpt lat="44.83809" lon="4.21706">
        <ele>1357.09</ele>
        <time>2015-08-10T11:23:04Z</time>
      </trkpt>
      <trkpt lat="44.83813" lon="4.21695">
        <ele>1357.29</ele>
        <time>2015-08-10T11:23:13Z</time>
      </trkpt>
      <trkpt lat="44.83824" lon="4.21691">
        <ele>1356.83</ele>
        <time>2015-08-10T11:23:25Z</time>
      </trkpt>
      <trkpt lat="44.83833" lon="4.21682">
        <ele>1356.81</ele>
        <time>2015-08-10T11:23:58Z</time>
      </trkpt>
      <trkpt lat="44.83843" lon="4.21678">
        <ele>1356.16</ele>
        <time>2015-08-10T11:24:19Z</time>
      </trkpt>
      <trkpt lat="44.83851" lon="4.21671">
        <ele>1356</ele>
        <time>2015-08-10T11:24:28Z</time>
      </trkpt>
      <trkpt lat="44.83859" lon="4.21665">
        <ele>1356.26</ele>
        <time>2015-08-10T11:24:37Z</time>
      </trkpt>
      <trkpt lat="44.83868" lon="4.2165">
        <ele>1356.67</ele>
        <time>2015-08-10T11:24:46Z</time>
      </trkpt>
      <trkpt lat="44.83875" lon="4.21639">
        <ele>1356.58</ele>
        <time>2015-08-10T11:24:55Z</time>
      </trkpt>
      <trkpt lat="44.83881" lon="4.2163">
        <ele>1355.93</ele>
        <time>2015-08-10T11:25:04Z</time>
      </trkpt>
      <trkpt lat="44.83887" lon="4.21618">
        <ele>1355.71</ele>
        <time>2015-08-10T11:25:13Z</time>
      </trkpt>
      <trkpt lat="44.83893" lon="4.21606">
        <ele>1355.62</ele>
        <time>2015-08-10T11:25:22Z</time>
      </trkpt>
      <trkpt lat="44.83901" lon="4.21595">
        <ele>1355.95</ele>
        <time>2015-08-10T11:25:31Z</time>
      </trkpt>
      <trkpt lat="44.83907" lon="4.21583">
        <ele>1355.73</ele>
        <time>2015-08-10T11:25:40Z</time>
      </trkpt>
      <trkpt lat="44.83914" lon="4.21573">
        <ele>1355.87</ele>
        <time>2015-08-10T11:26:04Z</time>
      </trkpt>
      <trkpt lat="44.83904" lon="4.21571">
        <ele>1358.45</ele>
        <time>2015-08-10T11:26:41Z</time>
      </trkpt>
      <trkpt lat="44.83896" lon="4.21577">
        <ele>1357.22</ele>
        <time>2015-08-10T11:26:59Z</time>
      </trkpt>
      <trkpt lat="44.83887" lon="4.21581">
        <ele>1356.08</ele>
        <time>2015-08-10T11:27:05Z</time>
      </trkpt>
      <trkpt lat="44.83895" lon="4.2157">
        <ele>1355.59</ele>
        <time>2015-08-10T11:27:14Z</time>
      </trkpt>
      <trkpt lat="44.83905" lon="4.21559">
        <ele>1355.68</ele>
        <time>2015-08-10T11:27:20Z</time>
      </trkpt>
      <trkpt lat="44.83913" lon="4.21551">
        <ele>1355.62</ele>
        <time>2015-08-10T11:27:26Z</time>
      </trkpt>
      <trkpt lat="44.83919" lon="4.2154">
        <ele>1355.38</ele>
        <time>2015-08-10T11:27:32Z</time>
      </trkpt>
      <trkpt lat="44.83928" lon="4.2153">
        <ele>1355.02</ele>
        <time>2015-08-10T11:27:41Z</time>
      </trkpt>
      <trkpt lat="44.83934" lon="4.21519">
        <ele>1354.43</ele>
        <time>2015-08-10T11:27:47Z</time>
      </trkpt>
      <trkpt lat="44.8394" lon="4.2151">
        <ele>1353.45</ele>
        <time>2015-08-10T11:27:56Z</time>
      </trkpt>
      <trkpt lat="44.83946" lon="4.21497">
        <ele>1353.34</ele>
        <time>2015-08-10T11:28:04Z</time>
      </trkpt>
      <trkpt lat="44.83953" lon="4.21485">
        <ele>1353.41</ele>
        <time>2015-08-10T11:28:13Z</time>
      </trkpt>
      <trkpt lat="44.8396" lon="4.21471">
        <ele>1354</ele>
        <time>2015-08-10T11:28:22Z</time>
      </trkpt>
      <trkpt lat="44.83965" lon="4.21457">
        <ele>1354.43</ele>
        <time>2015-08-10T11:28:34Z</time>
      </trkpt>
      <trkpt lat="44.83968" lon="4.21442">
        <ele>1354.05</ele>
        <time>2015-08-10T11:28:43Z</time>
      </trkpt>
      <trkpt lat="44.8397" lon="4.21425">
        <ele>1353.87</ele>
        <time>2015-08-10T11:28:52Z</time>
      </trkpt>
      <trkpt lat="44.83974" lon="4.21412">
        <ele>1353.77</ele>
        <time>2015-08-10T11:29:01Z</time>
      </trkpt>
      <trkpt lat="44.83974" lon="4.21398">
        <ele>1353.75</ele>
        <time>2015-08-10T11:29:10Z</time>
      </trkpt>
      <trkpt lat="44.83977" lon="4.2138">
        <ele>1353.46</ele>
        <time>2015-08-10T11:29:19Z</time>
      </trkpt>
      <trkpt lat="44.83981" lon="4.21366">
        <ele>1353.43</ele>
        <time>2015-08-10T11:29:28Z</time>
      </trkpt>
      <trkpt lat="44.83983" lon="4.21352">
        <ele>1353.57</ele>
        <time>2015-08-10T11:29:37Z</time>
      </trkpt>
      <trkpt lat="44.84019" lon="4.21308">
        <ele>1353.96</ele>
        <time>2015-08-10T11:30:34Z</time>
      </trkpt>
      <trkpt lat="44.84019" lon="4.21265">
        <ele>1362.6</ele>
        <time>2015-08-10T11:30:51Z</time>
      </trkpt>
      <trkpt lat="44.84031" lon="4.21268">
        <ele>1364.28</ele>
        <time>2015-08-10T11:30:56Z</time>
      </trkpt>
      <trkpt lat="44.84041" lon="4.21265">
        <ele>1362.28</ele>
        <time>2015-08-10T11:31:05Z</time>
      </trkpt>
      <trkpt lat="44.8405" lon="4.21273">
        <ele>1362.89</ele>
        <time>2015-08-10T11:31:12Z</time>
      </trkpt>
      <trkpt lat="44.84059" lon="4.2129">
        <ele>1362.86</ele>
        <time>2015-08-10T11:31:21Z</time>
      </trkpt>
      <trkpt lat="44.84066" lon="4.21303">
        <ele>1362.23</ele>
        <time>2015-08-10T11:31:30Z</time>
      </trkpt>
      <trkpt lat="44.84073" lon="4.21313">
        <ele>1361.79</ele>
        <time>2015-08-10T11:31:45Z</time>
      </trkpt>
      <trkpt lat="44.84082" lon="4.21307">
        <ele>1360.18</ele>
        <time>2015-08-10T11:32:00Z</time>
      </trkpt>
      <trkpt lat="44.84092" lon="4.21303">
        <ele>1359.16</ele>
        <time>2015-08-10T11:32:09Z</time>
      </trkpt>
      <trkpt lat="44.84101" lon="4.21308">
        <ele>1359.26</ele>
        <time>2015-08-10T11:32:24Z</time>
      </trkpt>
      <trkpt lat="44.84101" lon="4.21323">
        <ele>1359.47</ele>
        <time>2015-08-10T11:32:45Z</time>
      </trkpt>
      <trkpt lat="44.84101" lon="4.21338">
        <ele>1358.86</ele>
        <time>2015-08-10T11:32:54Z</time>
      </trkpt>
      <trkpt lat="44.84106" lon="4.21351">
        <ele>1356.52</ele>
        <time>2015-08-10T11:33:03Z</time>
      </trkpt>
      <trkpt lat="44.84114" lon="4.21356">
        <ele>1354.82</ele>
        <time>2015-08-10T11:33:12Z</time>
      </trkpt>
      <trkpt lat="44.84125" lon="4.21355">
        <ele>1354.35</ele>
        <time>2015-08-10T11:33:33Z</time>
      </trkpt>
      <trkpt lat="44.84133" lon="4.21359">
        <ele>1354.67</ele>
        <time>2015-08-10T11:33:50Z</time>
      </trkpt>
      <trkpt lat="44.84146" lon="4.21356">
        <ele>1358.68</ele>
        <time>2015-08-10T11:34:57Z</time>
      </trkpt>
      <trkpt lat="44.84158" lon="4.21343">
        <ele>1359.04</ele>
        <time>2015-08-10T11:35:00Z</time>
      </trkpt>
      <trkpt lat="44.84159" lon="4.21327">
        <ele>1360.03</ele>
        <time>2015-08-10T11:35:05Z</time>
      </trkpt>
      <trkpt lat="44.84161" lon="4.21367">
        <ele>1425.78</ele>
        <time>2015-08-10T11:35:18Z</time>
      </trkpt>
      <trkpt lat="44.84152" lon="4.21398">
        <ele>1425.25</ele>
        <time>2015-08-10T11:35:22Z</time>
      </trkpt>
      <trkpt lat="44.84165" lon="4.21414">
        <ele>1414.48</ele>
        <time>2015-08-10T11:35:42Z</time>
      </trkpt>
      <trkpt lat="44.84181" lon="4.21421">
        <ele>1407.03</ele>
        <time>2015-08-10T11:35:49Z</time>
      </trkpt>
      <trkpt lat="44.84194" lon="4.2143">
        <ele>1404.44</ele>
        <time>2015-08-10T11:35:59Z</time>
      </trkpt>
      <trkpt lat="44.84204" lon="4.21435">
        <ele>1398.74</ele>
        <time>2015-08-10T11:36:14Z</time>
      </trkpt>
      <trkpt lat="44.84214" lon="4.21437">
        <ele>1396.59</ele>
        <time>2015-08-10T11:36:23Z</time>
      </trkpt>
      <trkpt lat="44.84223" lon="4.21433">
        <ele>1395.88</ele>
        <time>2015-08-10T11:36:43Z</time>
      </trkpt>
      <trkpt lat="44.84232" lon="4.21421">
        <ele>1397.49</ele>
        <time>2015-08-10T11:36:55Z</time>
      </trkpt>
      <trkpt lat="44.84234" lon="4.21437">
        <ele>1397.91</ele>
        <time>2015-08-10T11:37:22Z</time>
      </trkpt>
      <trkpt lat="44.84205" lon="4.21511">
        <ele>1397.86</ele>
        <time>2015-08-10T11:38:24Z</time>
      </trkpt>
      <trkpt lat="44.84236" lon="4.21524">
        <ele>1399.27</ele>
        <time>2015-08-10T11:38:54Z</time>
      </trkpt>
      <trkpt lat="44.84241" lon="4.21539">
        <ele>1399.63</ele>
        <time>2015-08-10T11:39:00Z</time>
      </trkpt>
      <trkpt lat="44.84248" lon="4.2155">
        <ele>1400.06</ele>
        <time>2015-08-10T11:39:04Z</time>
      </trkpt>
      <trkpt lat="44.84255" lon="4.21559">
        <ele>1401.03</ele>
        <time>2015-08-10T11:39:13Z</time>
      </trkpt>
      <trkpt lat="44.84268" lon="4.21568">
        <ele>1401.65</ele>
        <time>2015-08-10T11:39:19Z</time>
      </trkpt>
      <trkpt lat="44.84277" lon="4.21575">
        <ele>1401.87</ele>
        <time>2015-08-10T11:39:22Z</time>
      </trkpt>
      <trkpt lat="44.84288" lon="4.21588">
        <ele>1402.28</ele>
        <time>2015-08-10T11:39:28Z</time>
      </trkpt>
      <trkpt lat="44.84296" lon="4.21595">
        <ele>1402.65</ele>
        <time>2015-08-10T11:39:34Z</time>
      </trkpt>
    </trkseg>
  </trk>
</gpx>